sensor_id;sensor_type;location;lat;lon;timestamp;P1;durP1;ratioP1;P2;durP2;ratioP2
18364;SDS011;9309;52.126;11.616;2023-02-17T00:00:58;42.37;;;20.10;;
18364;SDS011;9309;52.126;11.616;2023-02-17T00:03:25;44.07;;;20.63;;
18364;SDS011;9309;52.126;11.616;2023-02-17T00:05:51;47.07;;;20.90;;
18364;SDS011;9309;52.126;11.616;2023-02-17T00:08:18;46.07;;;21.07;;
18364;SDS011;9309;52.126;11.616;2023-02-17T00:10:53;45.67;;;22.27;;
18364;SDS011;9309;52.126;11.616;2023-02-17T00:13:20;45.23;;;21.13;;
18364;SDS011;9309;52.126;11.616;2023-02-17T00:15:48;53.00;;;22.07;;
18364;SDS011;9309;52.126;11.616;2023-02-17T00:18:15;43.33;;;21.47;;
18364;SDS011;9309;52.126;11.616;2023-02-17T00:20:41;49.33;;;22.77;;
18364;SDS011;9309;52.126;11.616;2023-02-17T00:23:08;47.50;;;22.70;;
18364;SDS011;9309;52.126;11.616;2023-02-17T00:25:36;47.93;;;23.07;;
18364;SDS011;9309;52.126;11.616;2023-02-17T00:28:03;41.60;;;21.30;;
18364;SDS011;9309;52.126;11.616;2023-02-17T00:30:30;55.90;;;22.87;;
18364;SDS011;9309;52.126;11.616;2023-02-17T00:33:00;47.00;;;23.03;;
18364;SDS011;9309;52.126;11.616;2023-02-17T00:35:26;44.50;;;21.50;;
18364;SDS011;9309;52.126;11.616;2023-02-17T00:37:53;46.87;;;22.40;;
18364;SDS011;9309;52.126;11.616;2023-02-17T00:40:19;45.90;;;22.67;;
18364;SDS011;9309;52.126;11.616;2023-02-17T00:42:46;46.53;;;21.73;;
18364;SDS011;9309;52.126;11.616;2023-02-17T00:45:13;42.27;;;22.50;;
18364;SDS011;9309;52.126;11.616;2023-02-17T00:47:40;44.63;;;21.47;;
18364;SDS011;9309;52.126;11.616;2023-02-17T00:50:09;45.63;;;22.27;;
18364;SDS011;9309;52.126;11.616;2023-02-17T00:52:36;44.57;;;21.90;;
18364;SDS011;9309;52.126;11.616;2023-02-17T00:55:03;44.37;;;20.57;;
18364;SDS011;9309;52.126;11.616;2023-02-17T00:57:30;36.03;;;17.77;;
18364;SDS011;9309;52.126;11.616;2023-02-17T00:59:57;38.77;;;18.87;;
18364;SDS011;9309;52.126;11.616;2023-02-17T01:02:25;38.00;;;19.13;;
18364;SDS011;9309;52.126;11.616;2023-02-17T01:04:52;36.13;;;18.30;;
18364;SDS011;9309;52.126;11.616;2023-02-17T01:07:20;35.73;;;17.33;;
18364;SDS011;9309;52.126;11.616;2023-02-17T01:09:47;31.97;;;17.40;;
18364;SDS011;9309;52.126;11.616;2023-02-17T01:12:14;34.53;;;17.00;;
18364;SDS011;9309;52.126;11.616;2023-02-17T01:14:41;29.80;;;16.33;;
18364;SDS011;9309;52.126;11.616;2023-02-17T01:17:07;29.63;;;15.77;;
18364;SDS011;9309;52.126;11.616;2023-02-17T01:19:34;41.47;;;18.33;;
18364;SDS011;9309;52.126;11.616;2023-02-17T01:22:01;30.77;;;15.87;;
18364;SDS011;9309;52.126;11.616;2023-02-17T01:24:29;31.93;;;17.00;;
18364;SDS011;9309;52.126;11.616;2023-02-17T01:26:55;31.70;;;16.53;;
18364;SDS011;9309;52.126;11.616;2023-02-17T01:29:25;30.57;;;15.17;;
18364;SDS011;9309;52.126;11.616;2023-02-17T01:31:52;26.17;;;14.90;;
18364;SDS011;9309;52.126;11.616;2023-02-17T01:34:19;27.67;;;15.43;;
18364;SDS011;9309;52.126;11.616;2023-02-17T01:36:45;31.70;;;15.93;;
18364;SDS011;9309;52.126;11.616;2023-02-17T01:39:12;27.47;;;15.20;;
18364;SDS011;9309;52.126;11.616;2023-02-17T01:41:41;26.23;;;14.57;;
18364;SDS011;9309;52.126;11.616;2023-02-17T01:44:10;20.53;;;13.03;;
18364;SDS011;9309;52.126;11.616;2023-02-17T01:46:39;27.27;;;15.57;;
18364;SDS011;9309;52.126;11.616;2023-02-17T01:49:11;30.80;;;15.07;;
18364;SDS011;9309;52.126;11.616;2023-02-17T01:51:45;24.20;;;14.27;;
18364;SDS011;9309;52.126;11.616;2023-02-17T01:54:16;26.47;;;15.23;;
18364;SDS011;9309;52.126;11.616;2023-02-17T01:56:48;25.97;;;14.33;;
18364;SDS011;9309;52.126;11.616;2023-02-17T01:59:16;25.97;;;15.23;;
18364;SDS011;9309;52.126;11.616;2023-02-17T02:01:46;23.83;;;12.73;;
18364;SDS011;9309;52.126;11.616;2023-02-17T02:04:18;21.07;;;13.03;;
18364;SDS011;9309;52.126;11.616;2023-02-17T02:06:47;25.37;;;12.37;;
18364;SDS011;9309;52.126;11.616;2023-02-17T02:09:15;18.77;;;12.93;;
18364;SDS011;9309;52.126;11.616;2023-02-17T02:11:46;18.23;;;12.57;;
18364;SDS011;9309;52.126;11.616;2023-02-17T02:14:15;23.43;;;12.63;;
18364;SDS011;9309;52.126;11.616;2023-02-17T02:16:46;22.93;;;12.30;;
18364;SDS011;9309;52.126;11.616;2023-02-17T02:19:34;17.97;;;11.97;;
18364;SDS011;9309;52.126;11.616;2023-02-17T02:22:22;19.10;;;11.33;;
18364;SDS011;9309;52.126;11.616;2023-02-17T02:25:07;22.80;;;12.33;;
18364;SDS011;9309;52.126;11.616;2023-02-17T02:27:50;16.70;;;11.50;;
18364;SDS011;9309;52.126;11.616;2023-02-17T02:33:24;20.57;;;11.83;;
18364;SDS011;9309;52.126;11.616;2023-02-17T02:36:00;18.30;;;10.87;;
18364;SDS011;9309;52.126;11.616;2023-02-17T02:38:34;17.03;;;10.30;;
18364;SDS011;9309;52.126;11.616;2023-02-17T02:41:06;16.07;;;9.77;;
18364;SDS011;9309;52.126;11.616;2023-02-17T02:43:35;14.13;;;10.00;;
18364;SDS011;9309;52.126;11.616;2023-02-17T02:46:03;16.57;;;10.53;;
18364;SDS011;9309;52.126;11.616;2023-02-17T02:48:31;16.07;;;10.30;;
18364;SDS011;9309;52.126;11.616;2023-02-17T02:51:02;12.63;;;8.90;;
18364;SDS011;9309;52.126;11.616;2023-02-17T02:53:53;14.67;;;8.60;;
18364;SDS011;9309;52.126;11.616;2023-02-17T02:56:45;15.93;;;9.13;;
18364;SDS011;9309;52.126;11.616;2023-02-17T02:59:24;13.80;;;8.87;;
18364;SDS011;9309;52.126;11.616;2023-02-17T03:02:02;13.73;;;9.47;;
18364;SDS011;9309;52.126;11.616;2023-02-17T03:04:35;12.77;;;8.87;;
18364;SDS011;9309;52.126;11.616;2023-02-17T03:07:05;12.87;;;8.90;;
18364;SDS011;9309;52.126;11.616;2023-02-17T03:09:46;10.67;;;8.73;;
18364;SDS011;9309;52.126;11.616;2023-02-17T03:12:13;11.83;;;8.60;;
18364;SDS011;9309;52.126;11.616;2023-02-17T03:14:40;12.90;;;8.73;;
18364;SDS011;9309;52.126;11.616;2023-02-17T03:17:08;13.93;;;9.20;;
18364;SDS011;9309;52.126;11.616;2023-02-17T03:19:36;14.60;;;8.40;;
18364;SDS011;9309;52.126;11.616;2023-02-17T03:22:04;10.30;;;8.37;;
18364;SDS011;9309;52.126;11.616;2023-02-17T03:24:34;10.47;;;7.87;;
18364;SDS011;9309;52.126;11.616;2023-02-17T03:27:04;12.33;;;8.83;;
18364;SDS011;9309;52.126;11.616;2023-02-17T03:29:31;11.13;;;8.67;;
18364;SDS011;9309;52.126;11.616;2023-02-17T03:31:58;12.93;;;8.40;;
18364;SDS011;9309;52.126;11.616;2023-02-17T03:34:25;12.37;;;8.67;;
18364;SDS011;9309;52.126;11.616;2023-02-17T03:36:53;10.07;;;7.90;;
18364;SDS011;9309;52.126;11.616;2023-02-17T03:39:20;13.50;;;8.60;;
18364;SDS011;9309;52.126;11.616;2023-02-17T03:41:47;14.13;;;8.67;;
18364;SDS011;9309;52.126;11.616;2023-02-17T03:44:15;12.57;;;8.30;;
18364;SDS011;9309;52.126;11.616;2023-02-17T03:46:42;9.90;;;8.13;;
18364;SDS011;9309;52.126;11.616;2023-02-17T03:49:09;11.60;;;8.63;;
18364;SDS011;9309;52.126;11.616;2023-02-17T03:51:36;12.53;;;8.40;;
18364;SDS011;9309;52.126;11.616;2023-02-17T03:54:04;14.90;;;8.97;;
18364;SDS011;9309;52.126;11.616;2023-02-17T03:56:31;12.97;;;9.07;;
18364;SDS011;9309;52.126;11.616;2023-02-17T03:58:57;15.77;;;9.70;;
18364;SDS011;9309;52.126;11.616;2023-02-17T04:01:24;14.57;;;9.97;;
18364;SDS011;9309;52.126;11.616;2023-02-17T04:03:51;15.17;;;9.80;;
18364;SDS011;9309;52.126;11.616;2023-02-17T04:06:17;16.33;;;10.77;;
18364;SDS011;9309;52.126;11.616;2023-02-17T04:08:44;14.83;;;10.57;;
18364;SDS011;9309;52.126;11.616;2023-02-17T04:11:12;16.00;;;10.77;;
18364;SDS011;9309;52.126;11.616;2023-02-17T04:13:39;18.03;;;11.37;;
18364;SDS011;9309;52.126;11.616;2023-02-17T04:16:06;20.73;;;11.67;;
18364;SDS011;9309;52.126;11.616;2023-02-17T04:18:33;18.57;;;11.77;;
18364;SDS011;9309;52.126;11.616;2023-02-17T04:21:00;17.53;;;11.87;;
18364;SDS011;9309;52.126;11.616;2023-02-17T04:23:28;20.63;;;12.17;;
18364;SDS011;9309;52.126;11.616;2023-02-17T04:25:54;23.27;;;13.07;;
18364;SDS011;9309;52.126;11.616;2023-02-17T04:28:22;18.73;;;12.40;;
18364;SDS011;9309;52.126;11.616;2023-02-17T04:30:50;23.13;;;13.33;;
18364;SDS011;9309;52.126;11.616;2023-02-17T04:33:17;21.30;;;12.93;;
18364;SDS011;9309;52.126;11.616;2023-02-17T04:35:44;19.17;;;12.27;;
18364;SDS011;9309;52.126;11.616;2023-02-17T04:38:11;21.40;;;12.57;;
18364;SDS011;9309;52.126;11.616;2023-02-17T04:40:38;24.37;;;13.63;;
18364;SDS011;9309;52.126;11.616;2023-02-17T04:43:05;25.23;;;13.13;;
18364;SDS011;9309;52.126;11.616;2023-02-17T04:45:34;22.40;;;13.20;;
18364;SDS011;9309;52.126;11.616;2023-02-17T04:48:01;25.50;;;14.07;;
18364;SDS011;9309;52.126;11.616;2023-02-17T04:50:27;20.23;;;12.97;;
18364;SDS011;9309;52.126;11.616;2023-02-17T04:52:54;23.27;;;13.27;;
18364;SDS011;9309;52.126;11.616;2023-02-17T04:55:21;22.40;;;13.27;;
18364;SDS011;9309;52.126;11.616;2023-02-17T04:57:48;20.57;;;12.97;;
18364;SDS011;9309;52.126;11.616;2023-02-17T05:00:14;17.83;;;12.97;;
18364;SDS011;9309;52.126;11.616;2023-02-17T05:02:42;20.60;;;12.87;;
18364;SDS011;9309;52.126;11.616;2023-02-17T05:05:09;22.00;;;13.00;;
18364;SDS011;9309;52.126;11.616;2023-02-17T05:07:39;20.23;;;12.40;;
18364;SDS011;9309;52.126;11.616;2023-02-17T05:10:06;20.23;;;12.90;;
18364;SDS011;9309;52.126;11.616;2023-02-17T05:12:33;20.13;;;13.03;;
18364;SDS011;9309;52.126;11.616;2023-02-17T05:15:00;18.27;;;12.53;;
18364;SDS011;9309;52.126;11.616;2023-02-17T05:17:27;18.57;;;12.57;;
18364;SDS011;9309;52.126;11.616;2023-02-17T05:19:55;22.20;;;12.20;;
18364;SDS011;9309;52.126;11.616;2023-02-17T05:22:21;20.63;;;13.60;;
18364;SDS011;9309;52.126;11.616;2023-02-17T05:24:48;17.83;;;11.87;;
18364;SDS011;9309;52.126;11.616;2023-02-17T05:27:14;19.67;;;11.40;;
18364;SDS011;9309;52.126;11.616;2023-02-17T05:29:41;20.93;;;12.40;;
18364;SDS011;9309;52.126;11.616;2023-02-17T05:32:08;20.37;;;12.23;;
18364;SDS011;9309;52.126;11.616;2023-02-17T05:34:34;19.70;;;12.40;;
18364;SDS011;9309;52.126;11.616;2023-02-17T05:37:02;20.57;;;11.30;;
18364;SDS011;9309;52.126;11.616;2023-02-17T05:39:29;16.90;;;10.70;;
18364;SDS011;9309;52.126;11.616;2023-02-17T05:41:56;16.60;;;10.90;;
18364;SDS011;9309;52.126;11.616;2023-02-17T05:44:23;17.97;;;10.93;;
18364;SDS011;9309;52.126;11.616;2023-02-17T05:46:49;17.80;;;10.93;;
18364;SDS011;9309;52.126;11.616;2023-02-17T05:49:16;14.67;;;10.43;;
18364;SDS011;9309;52.126;11.616;2023-02-17T05:51:42;14.70;;;10.70;;
18364;SDS011;9309;52.126;11.616;2023-02-17T05:54:10;19.07;;;10.37;;
18364;SDS011;9309;52.126;11.616;2023-02-17T05:56:37;15.47;;;10.27;;
18364;SDS011;9309;52.126;11.616;2023-02-17T05:59:04;18.63;;;11.83;;
18364;SDS011;9309;52.126;11.616;2023-02-17T06:01:30;15.57;;;9.90;;
18364;SDS011;9309;52.126;11.616;2023-02-17T06:03:57;14.97;;;10.47;;
18364;SDS011;9309;52.126;11.616;2023-02-17T06:06:24;16.40;;;10.67;;
18364;SDS011;9309;52.126;11.616;2023-02-17T06:08:50;18.67;;;11.07;;
18364;SDS011;9309;52.126;11.616;2023-02-17T06:11:18;16.60;;;10.77;;
18364;SDS011;9309;52.126;11.616;2023-02-17T06:13:45;19.20;;;10.70;;
18364;SDS011;9309;52.126;11.616;2023-02-17T06:16:12;13.73;;;9.20;;
18364;SDS011;9309;52.126;11.616;2023-02-17T06:18:38;13.97;;;9.67;;
18364;SDS011;9309;52.126;11.616;2023-02-17T06:21:05;14.13;;;9.27;;
18364;SDS011;9309;52.126;11.616;2023-02-17T06:23:31;14.43;;;9.97;;
18364;SDS011;9309;52.126;11.616;2023-02-17T06:25:58;11.90;;;9.37;;
18364;SDS011;9309;52.126;11.616;2023-02-17T06:28:26;15.43;;;10.03;;
18364;SDS011;9309;52.126;11.616;2023-02-17T06:30:53;13.37;;;9.53;;
18364;SDS011;9309;52.126;11.616;2023-02-17T06:33:19;13.63;;;9.43;;
18364;SDS011;9309;52.126;11.616;2023-02-17T06:35:49;13.70;;;9.37;;
18364;SDS011;9309;52.126;11.616;2023-02-17T06:38:16;15.00;;;10.30;;
18364;SDS011;9309;52.126;11.616;2023-02-17T06:40:43;13.90;;;10.00;;
18364;SDS011;9309;52.126;11.616;2023-02-17T06:43:10;17.83;;;11.07;;
18364;SDS011;9309;52.126;11.616;2023-02-17T06:45:38;12.43;;;9.30;;
18364;SDS011;9309;52.126;11.616;2023-02-17T06:48:05;13.43;;;9.23;;
18364;SDS011;9309;52.126;11.616;2023-02-17T06:50:31;15.77;;;10.13;;
18364;SDS011;9309;52.126;11.616;2023-02-17T06:52:59;17.77;;;11.90;;
18364;SDS011;9309;52.126;11.616;2023-02-17T06:55:25;13.77;;;9.97;;
18364;SDS011;9309;52.126;11.616;2023-02-17T06:57:52;13.83;;;10.13;;
18364;SDS011;9309;52.126;11.616;2023-02-17T07:00:19;14.53;;;9.73;;
18364;SDS011;9309;52.126;11.616;2023-02-17T07:02:47;14.83;;;10.17;;
18364;SDS011;9309;52.126;11.616;2023-02-17T07:05:14;13.47;;;9.33;;
18364;SDS011;9309;52.126;11.616;2023-02-17T07:07:41;11.57;;;9.00;;
18364;SDS011;9309;52.126;11.616;2023-02-17T07:10:07;14.60;;;9.07;;
18364;SDS011;9309;52.126;11.616;2023-02-17T07:12:35;12.27;;;8.97;;
18364;SDS011;9309;52.126;11.616;2023-02-17T07:15:02;16.30;;;10.70;;
18364;SDS011;9309;52.126;11.616;2023-02-17T07:17:29;11.90;;;8.87;;
18364;SDS011;9309;52.126;11.616;2023-02-17T07:19:56;12.60;;;9.30;;
18364;SDS011;9309;52.126;11.616;2023-02-17T07:22:23;14.40;;;9.70;;
18364;SDS011;9309;52.126;11.616;2023-02-17T07:24:50;12.03;;;8.87;;
18364;SDS011;9309;52.126;11.616;2023-02-17T07:27:17;9.87;;;8.30;;
18364;SDS011;9309;52.126;11.616;2023-02-17T07:29:44;14.60;;;9.30;;
18364;SDS011;9309;52.126;11.616;2023-02-17T07:32:10;12.37;;;8.27;;
18364;SDS011;9309;52.126;11.616;2023-02-17T07:34:37;9.70;;;7.73;;
18364;SDS011;9309;52.126;11.616;2023-02-17T07:37:05;11.80;;;8.37;;
18364;SDS011;9309;52.126;11.616;2023-02-17T07:39:33;11.03;;;8.00;;
18364;SDS011;9309;52.126;11.616;2023-02-17T07:41:59;13.47;;;8.40;;
18364;SDS011;9309;52.126;11.616;2023-02-17T07:44:31;11.20;;;8.10;;
18364;SDS011;9309;52.126;11.616;2023-02-17T07:46:57;10.37;;;8.43;;
18364;SDS011;9309;52.126;11.616;2023-02-17T07:49:24;10.93;;;8.57;;
18364;SDS011;9309;52.126;11.616;2023-02-17T07:51:51;13.20;;;8.70;;
18364;SDS011;9309;52.126;11.616;2023-02-17T07:54:19;16.00;;;9.17;;
18364;SDS011;9309;52.126;11.616;2023-02-17T07:56:45;12.77;;;9.20;;
18364;SDS011;9309;52.126;11.616;2023-02-17T07:59:12;12.20;;;8.67;;
18364;SDS011;9309;52.126;11.616;2023-02-17T08:01:39;12.27;;;8.70;;
18364;SDS011;9309;52.126;11.616;2023-02-17T08:04:06;13.80;;;9.50;;
18364;SDS011;9309;52.126;11.616;2023-02-17T08:06:33;12.77;;;9.20;;
18364;SDS011;9309;52.126;11.616;2023-02-17T08:09:00;12.47;;;8.57;;
18364;SDS011;9309;52.126;11.616;2023-02-17T08:11:45;14.57;;;9.30;;
18364;SDS011;9309;52.126;11.616;2023-02-17T08:14:30;12.23;;;9.00;;
18364;SDS011;9309;52.126;11.616;2023-02-17T08:16:57;10.20;;;8.47;;
18364;SDS011;9309;52.126;11.616;2023-02-17T08:19:24;12.83;;;9.07;;
18364;SDS011;9309;52.126;11.616;2023-02-17T08:21:51;12.40;;;8.83;;
18364;SDS011;9309;52.126;11.616;2023-02-17T08:24:18;11.77;;;8.63;;
18364;SDS011;9309;52.126;11.616;2023-02-17T08:26:46;12.57;;;9.07;;
18364;SDS011;9309;52.126;11.616;2023-02-17T08:29:13;15.40;;;9.23;;
18364;SDS011;9309;52.126;11.616;2023-02-17T08:31:40;12.33;;;8.57;;
18364;SDS011;9309;52.126;11.616;2023-02-17T08:34:09;11.87;;;8.00;;
18364;SDS011;9309;52.126;11.616;2023-02-17T08:36:37;13.73;;;8.67;;
18364;SDS011;9309;52.126;11.616;2023-02-17T08:39:04;12.57;;;9.33;;
18364;SDS011;9309;52.126;11.616;2023-02-17T08:41:35;12.77;;;8.50;;
18364;SDS011;9309;52.126;11.616;2023-02-17T08:44:06;11.60;;;8.87;;
18364;SDS011;9309;52.126;11.616;2023-02-17T08:46:34;14.33;;;9.40;;
18364;SDS011;9309;52.126;11.616;2023-02-17T08:49:01;11.60;;;9.07;;
18364;SDS011;9309;52.126;11.616;2023-02-17T08:51:28;13.53;;;8.70;;
18364;SDS011;9309;52.126;11.616;2023-02-17T08:53:56;12.33;;;9.03;;
18364;SDS011;9309;52.126;11.616;2023-02-17T08:56:25;14.77;;;9.90;;
18364;SDS011;9309;52.126;11.616;2023-02-17T08:58:52;13.80;;;8.67;;
18364;SDS011;9309;52.126;11.616;2023-02-17T09:01:21;12.60;;;9.23;;
18364;SDS011;9309;52.126;11.616;2023-02-17T09:03:49;13.03;;;9.17;;
18364;SDS011;9309;52.126;11.616;2023-02-17T09:06:17;16.67;;;9.10;;
18364;SDS011;9309;52.126;11.616;2023-02-17T09:08:45;14.83;;;9.47;;
18364;SDS011;9309;52.126;11.616;2023-02-17T09:11:12;14.47;;;9.50;;
18364;SDS011;9309;52.126;11.616;2023-02-17T09:13:42;11.00;;;8.20;;
18364;SDS011;9309;52.126;11.616;2023-02-17T09:16:09;12.37;;;8.73;;
18364;SDS011;9309;52.126;11.616;2023-02-17T09:18:37;17.23;;;9.50;;
18364;SDS011;9309;52.126;11.616;2023-02-17T09:21:04;12.47;;;9.07;;
18364;SDS011;9309;52.126;11.616;2023-02-17T09:23:32;11.00;;;7.97;;
18364;SDS011;9309;52.126;11.616;2023-02-17T09:25:59;11.20;;;8.53;;
18364;SDS011;9309;52.126;11.616;2023-02-17T09:28:28;11.30;;;8.17;;
18364;SDS011;9309;52.126;11.616;2023-02-17T09:30:55;11.57;;;8.77;;
18364;SDS011;9309;52.126;11.616;2023-02-17T09:33:21;16.50;;;8.33;;
18364;SDS011;9309;52.126;11.616;2023-02-17T09:35:49;12.50;;;8.33;;
18364;SDS011;9309;52.126;11.616;2023-02-17T09:38:17;12.00;;;8.53;;
18364;SDS011;9309;52.126;11.616;2023-02-17T09:40:44;13.40;;;8.80;;
18364;SDS011;9309;52.126;11.616;2023-02-17T09:43:13;13.33;;;8.87;;
18364;SDS011;9309;52.126;11.616;2023-02-17T09:45:43;11.10;;;8.33;;
18364;SDS011;9309;52.126;11.616;2023-02-17T09:48:14;13.97;;;8.50;;
18364;SDS011;9309;52.126;11.616;2023-02-17T09:50:47;10.90;;;8.77;;
18364;SDS011;9309;52.126;11.616;2023-02-17T09:53:21;9.97;;;7.90;;
18364;SDS011;9309;52.126;11.616;2023-02-17T09:55:53;11.70;;;8.13;;
18364;SDS011;9309;52.126;11.616;2023-02-17T09:58:22;12.53;;;8.40;;
18364;SDS011;9309;52.126;11.616;2023-02-17T10:00:54;10.83;;;8.10;;
18364;SDS011;9309;52.126;11.616;2023-02-17T10:03:24;10.37;;;7.80;;
18364;SDS011;9309;52.126;11.616;2023-02-17T10:05:59;9.93;;;8.07;;
18364;SDS011;9309;52.126;11.616;2023-02-17T10:08:33;11.13;;;8.73;;
18364;SDS011;9309;52.126;11.616;2023-02-17T10:11:06;11.10;;;7.83;;
18364;SDS011;9309;52.126;11.616;2023-02-17T10:13:38;10.30;;;7.63;;
18364;SDS011;9309;52.126;11.616;2023-02-17T10:16:10;9.67;;;7.60;;
18364;SDS011;9309;52.126;11.616;2023-02-17T10:18:43;11.87;;;8.20;;
18364;SDS011;9309;52.126;11.616;2023-02-17T10:21:16;13.43;;;8.63;;
18364;SDS011;9309;52.126;11.616;2023-02-17T10:23:46;10.87;;;7.37;;
18364;SDS011;9309;52.126;11.616;2023-02-17T10:26:15;11.13;;;7.47;;
18364;SDS011;9309;52.126;11.616;2023-02-17T10:28:50;10.43;;;7.53;;
18364;SDS011;9309;52.126;11.616;2023-02-17T10:31:24;7.97;;;7.03;;
18364;SDS011;9309;52.126;11.616;2023-02-17T10:34:00;7.57;;;6.60;;
18364;SDS011;9309;52.126;11.616;2023-02-17T10:39:34;9.87;;;7.53;;
18364;SDS011;9309;52.126;11.616;2023-02-17T10:42:13;8.40;;;6.57;;
18364;SDS011;9309;52.126;11.616;2023-02-17T10:44:45;7.47;;;6.77;;
18364;SDS011;9309;52.126;11.616;2023-02-17T10:47:14;8.13;;;7.00;;
18364;SDS011;9309;52.126;11.616;2023-02-17T10:49:43;8.90;;;6.67;;
18364;SDS011;9309;52.126;11.616;2023-02-17T10:52:15;7.37;;;6.67;;
18364;SDS011;9309;52.126;11.616;2023-02-17T10:54:45;9.67;;;6.53;;
18364;SDS011;9309;52.126;11.616;2023-02-17T10:57:18;6.40;;;5.80;;
18364;SDS011;9309;52.126;11.616;2023-02-17T10:59:47;6.70;;;6.00;;
18364;SDS011;9309;52.126;11.616;2023-02-17T11:02:17;8.47;;;6.47;;
18364;SDS011;9309;52.126;11.616;2023-02-17T11:04:46;7.70;;;5.70;;
18364;SDS011;9309;52.126;11.616;2023-02-17T11:07:17;6.90;;;6.20;;
18364;SDS011;9309;52.126;11.616;2023-02-17T11:09:47;7.40;;;6.30;;
18364;SDS011;9309;52.126;11.616;2023-02-17T11:12:26;8.90;;;6.00;;
18364;SDS011;9309;52.126;11.616;2023-02-17T11:14:57;6.90;;;5.73;;
18364;SDS011;9309;52.126;11.616;2023-02-17T11:17:29;6.03;;;4.93;;
18364;SDS011;9309;52.126;11.616;2023-02-17T11:20:00;5.33;;;4.67;;
18364;SDS011;9309;52.126;11.616;2023-02-17T11:22:33;5.23;;;4.80;;
18364;SDS011;9309;52.126;11.616;2023-02-17T11:25:03;6.10;;;5.50;;
18364;SDS011;9309;52.126;11.616;2023-02-17T11:27:32;6.77;;;5.47;;
18364;SDS011;9309;52.126;11.616;2023-02-17T11:30:06;11.40;;;5.50;;
18364;SDS011;9309;52.126;11.616;2023-02-17T11:32:34;7.70;;;4.77;;
18364;SDS011;9309;52.126;11.616;2023-02-17T11:35:01;5.77;;;5.20;;
18364;SDS011;9309;52.126;11.616;2023-02-17T11:37:31;6.07;;;4.97;;
18364;SDS011;9309;52.126;11.616;2023-02-17T11:40:09;6.90;;;5.43;;
18364;SDS011;9309;52.126;11.616;2023-02-17T11:42:53;5.17;;;4.77;;
18364;SDS011;9309;52.126;11.616;2023-02-17T11:45:21;5.37;;;4.60;;
18364;SDS011;9309;52.126;11.616;2023-02-17T11:47:51;6.73;;;4.47;;
18364;SDS011;9309;52.126;11.616;2023-02-17T11:50:27;5.83;;;4.67;;
18364;SDS011;9309;52.126;11.616;2023-02-17T11:53:02;5.67;;;4.30;;
18364;SDS011;9309;52.126;11.616;2023-02-17T11:55:45;5.37;;;4.13;;
18364;SDS011;9309;52.126;11.616;2023-02-17T11:58:26;5.30;;;4.23;;
18364;SDS011;9309;52.126;11.616;2023-02-17T12:01:02;6.80;;;4.03;;
18364;SDS011;9309;52.126;11.616;2023-02-17T12:03:51;5.70;;;3.37;;
18364;SDS011;9309;52.126;11.616;2023-02-17T12:06:36;5.83;;;2.83;;
18364;SDS011;9309;52.126;11.616;2023-02-17T12:09:14;3.67;;;3.30;;
18364;SDS011;9309;52.126;11.616;2023-02-17T12:11:48;3.77;;;3.40;;
18364;SDS011;9309;52.126;11.616;2023-02-17T12:14:36;9.00;;;4.70;;
18364;SDS011;9309;52.126;11.616;2023-02-17T12:17:15;5.40;;;3.80;;
18364;SDS011;9309;52.126;11.616;2023-02-17T12:19:50;4.53;;;4.13;;
18364;SDS011;9309;52.126;11.616;2023-02-17T12:22:29;3.57;;;3.27;;
18364;SDS011;9309;52.126;11.616;2023-02-17T12:25:05;3.50;;;3.30;;
18364;SDS011;9309;52.126;11.616;2023-02-17T12:27:48;3.57;;;3.30;;
18364;SDS011;9309;52.126;11.616;2023-02-17T12:30:29;3.37;;;3.17;;
18364;SDS011;9309;52.126;11.616;2023-02-17T12:33:09;3.60;;;3.40;;
18364;SDS011;9309;52.126;11.616;2023-02-17T12:35:45;4.73;;;3.30;;
18364;SDS011;9309;52.126;11.616;2023-02-17T12:38:17;3.20;;;2.93;;
18364;SDS011;9309;52.126;11.616;2023-02-17T12:40:51;3.10;;;3.00;;
18364;SDS011;9309;52.126;11.616;2023-02-17T12:43:23;3.10;;;2.90;;
18364;SDS011;9309;52.126;11.616;2023-02-17T12:45:53;3.30;;;3.00;;
18364;SDS011;9309;52.126;11.616;2023-02-17T12:48:24;3.13;;;2.90;;
18364;SDS011;9309;52.126;11.616;2023-02-17T12:50:57;3.03;;;2.90;;
18364;SDS011;9309;52.126;11.616;2023-02-17T12:53:33;3.13;;;2.93;;
18364;SDS011;9309;52.126;11.616;2023-02-17T12:56:18;2.90;;;2.70;;
18364;SDS011;9309;52.126;11.616;2023-02-17T12:58:58;3.30;;;3.10;;
18364;SDS011;9309;52.126;11.616;2023-02-17T13:01:36;3.57;;;3.03;;
18364;SDS011;9309;52.126;11.616;2023-02-17T13:04:07;3.47;;;3.17;;
18364;SDS011;9309;52.126;11.616;2023-02-17T13:06:41;7.67;;;3.10;;
18364;SDS011;9309;52.126;11.616;2023-02-17T13:09:14;3.20;;;3.00;;
18364;SDS011;9309;52.126;11.616;2023-02-17T13:11:48;3.53;;;2.93;;
18364;SDS011;9309;52.126;11.616;2023-02-17T13:14:23;4.27;;;3.20;;
18364;SDS011;9309;52.126;11.616;2023-02-17T13:16:51;3.90;;;3.37;;
18364;SDS011;9309;52.126;11.616;2023-02-17T13:19:26;3.50;;;3.10;;
18364;SDS011;9309;52.126;11.616;2023-02-17T13:21:54;6.27;;;3.23;;
18364;SDS011;9309;52.126;11.616;2023-02-17T13:24:30;3.57;;;3.27;;
18364;SDS011;9309;52.126;11.616;2023-02-17T13:27:09;4.77;;;3.53;;
18364;SDS011;9309;52.126;11.616;2023-02-17T13:29:37;3.23;;;2.97;;
18364;SDS011;9309;52.126;11.616;2023-02-17T13:32:04;4.87;;;3.43;;
18364;SDS011;9309;52.126;11.616;2023-02-17T13:34:33;3.73;;;3.20;;
18364;SDS011;9309;52.126;11.616;2023-02-17T13:37:02;3.97;;;3.50;;
18364;SDS011;9309;52.126;11.616;2023-02-17T13:39:41;3.57;;;3.27;;
18364;SDS011;9309;52.126;11.616;2023-02-17T13:42:33;3.90;;;3.70;;
18364;SDS011;9309;52.126;11.616;2023-02-17T13:45:10;7.13;;;3.97;;
18364;SDS011;9309;52.126;11.616;2023-02-17T13:47:41;4.17;;;3.50;;
18364;SDS011;9309;52.126;11.616;2023-02-17T13:52:53;3.70;;;3.50;;
18364;SDS011;9309;52.126;11.616;2023-02-17T13:55:20;4.30;;;4.00;;
18364;SDS011;9309;52.126;11.616;2023-02-17T13:57:51;4.40;;;3.90;;
18364;SDS011;9309;52.126;11.616;2023-02-17T14:00:21;5.07;;;4.63;;
18364;SDS011;9309;52.126;11.616;2023-02-17T14:02:49;7.37;;;4.40;;
18364;SDS011;9309;52.126;11.616;2023-02-17T14:05:18;4.87;;;4.43;;
18364;SDS011;9309;52.126;11.616;2023-02-17T14:07:48;5.77;;;4.33;;
18364;SDS011;9309;52.126;11.616;2023-02-17T14:10:24;6.03;;;4.43;;
18364;SDS011;9309;52.126;11.616;2023-02-17T14:12:53;5.13;;;4.37;;
18364;SDS011;9309;52.126;11.616;2023-02-17T14:15:21;6.17;;;4.47;;
18364;SDS011;9309;52.126;11.616;2023-02-17T14:17:49;7.30;;;5.10;;
18364;SDS011;9309;52.126;11.616;2023-02-17T14:20:24;6.97;;;5.10;;
18364;SDS011;9309;52.126;11.616;2023-02-17T14:23:02;6.03;;;4.80;;
18364;SDS011;9309;52.126;11.616;2023-02-17T14:25:32;7.03;;;5.77;;
18364;SDS011;9309;52.126;11.616;2023-02-17T14:28:01;6.73;;;4.90;;
18364;SDS011;9309;52.126;11.616;2023-02-17T14:30:30;7.20;;;5.87;;
18364;SDS011;9309;52.126;11.616;2023-02-17T14:33:00;8.33;;;5.30;;
18364;SDS011;9309;52.126;11.616;2023-02-17T14:35:28;6.40;;;5.80;;
18364;SDS011;9309;52.126;11.616;2023-02-17T14:38:04;6.63;;;5.90;;
18364;SDS011;9309;52.126;11.616;2023-02-17T14:40:32;7.10;;;6.30;;
18364;SDS011;9309;52.126;11.616;2023-02-17T14:42:59;7.40;;;6.67;;
18364;SDS011;9309;52.126;11.616;2023-02-17T14:45:27;10.70;;;7.23;;
18364;SDS011;9309;52.126;11.616;2023-02-17T14:47:56;8.93;;;7.30;;
18364;SDS011;9309;52.126;11.616;2023-02-17T14:50:23;10.40;;;7.70;;
18364;SDS011;9309;52.126;11.616;2023-02-17T14:52:49;9.93;;;6.57;;
18364;SDS011;9309;52.126;11.616;2023-02-17T14:55:28;11.60;;;6.37;;
18364;SDS011;9309;52.126;11.616;2023-02-17T14:57:57;10.50;;;7.07;;